Time;durP1;ratioP1;P1;durP2;ratioP2;P2;SDS_P1;SDS_P2;PMS_P1;PMS_P2;Temp;Humidity;BMP_temperature;BMP_pressure;BME280_temperature;BME280_humidity;BME280_pressure;Samples;Min_cycle;Max_cycle;Signal;HPM_P1;HPM_P2
2022/06/10 00:01:18;;;;;;;1.88;0.82;;;21.40;62.30;;;;;;4429076;32;20232;-69
2022/06/10 00:03:43;;;;;;;1.38;0.68;;;21.40;62.30;;;;;;4429085;32;20423;-69
2022/06/10 00:06:11;;;;;;;2.63;0.80;;;21.40;62.20;;;;;;4428995;32;20086;-69
2022/06/10 00:08:41;;;;;;;4.47;0.60;;;21.40;62.20;;;;;;4429221;32;20502;-74
2022/06/10 00:11:10;;;;;;;2.10;0.75;;;21.40;62.20;;;;;;4429079;32;20220;-73
2022/06/10 00:13:39;;;;;;;2.08;0.68;;;21.40;62.20;;;;;;4428814;32;20086;-69
2022/06/10 00:16:06;;;;;;;2.85;0.82;;;21.40;62.20;;;;;;4429093;32;20093;-69
2022/06/10 00:18:33;;;;;;;2.17;0.90;;;21.40;62.20;;;;;;4429178;32;20071;-69
2022/06/10 00:21:02;;;;;;;1.65;0.70;;;21.40;62.20;;;;;;4429192;32;20197;-68
2022/06/10 00:23:28;;;;;;;1.58;0.60;;;21.40;62.20;;;;;;4428845;32;20225;-69
2022/06/10 00:25:54;;;;;;;1.05;0.40;;;21.40;62.20;;;;;;4429037;32;20096;-68
2022/06/10 00:28:20;;;;;;;2.72;0.95;;;21.30;62.20;;;;;;4430001;32;20113;-69
2022/06/10 00:30:46;;;;;;;2.45;0.90;;;21.30;62.20;;;;;;4432007;32;20212;-69
2022/06/10 00:33:12;;;;;;;1.60;0.52;;;21.30;62.20;;;;;;4417887;32;20578;-68
2022/06/10 00:35:39;;;;;;;2.28;0.90;;;21.30;62.10;;;;;;4431620;32;20098;-78
2022/06/10 00:38:05;;;;;;;2.55;0.88;;;21.30;62.20;;;;;;4431634;32;20423;-69
2022/06/10 00:40:38;;;;;;;1.73;0.57;;;21.30;62.20;;;;;;4431420;32;20078;-69
2022/06/10 00:43:04;;;;;;;2.85;0.73;;;21.30;62.20;;;;;;4432056;32;20063;-69
2022/06/10 00:46:14;;;;;;;2.40;1.10;;;21.30;62.20;;;;;;4431233;32;20157;-68
2022/06/10 00:49:07;;;;;;;2.55;0.75;;;21.30;62.00;;;;;;4407409;32;20097;-78
2022/06/10 00:51:38;;;;;;;1.75;0.80;;;21.30;62.10;;;;;;4430849;32;20094;-68
2022/06/10 00:54:13;;;;;;;2.17;0.90;;;21.30;62.20;;;;;;4431594;32;20101;-69
2022/06/10 00:56:43;;;;;;;2.30;0.88;;;21.30;62.10;;;;;;4431247;32;20078;-71
2022/06/10 00:59:15;;;;;;;1.92;0.68;;;21.30;62.20;;;;;;4431369;32;20516;-69
2022/06/10 01:01:41;;;;;;;2.40;0.80;;;21.30;62.10;;;;;;4431334;32;20079;-69
2022/06/10 01:04:09;;;;;;;1.30;0.50;;;21.20;62.10;;;;;;4431573;32;20199;-69
2022/06/10 01:06:35;;;;;;;1.67;0.50;;;21.20;62.00;;;;;;4431365;32;20193;-69
2022/06/10 01:09:02;;;;;;;1.98;0.50;;;21.20;62.10;;;;;;4430875;32;20070;-69
2022/06/10 01:11:41;;;;;;;2.08;0.80;;;21.20;62.00;;;;;;4431191;32;20083;-69
2022/06/10 01:14:34;;;;;;;1.83;0.70;;;21.20;62.10;;;;;;4431219;32;20258;-69
2022/06/10 01:17:18;;;;;;;1.17;0.67;;;21.20;62.00;;;;;;4431139;32;20078;-69
2022/06/10 01:19:54;;;;;;;1.40;0.35;;;21.20;62.10;;;;;;4431385;32;20156;-69
2022/06/10 01:22:45;;;;;;;1.02;0.52;;;21.20;62.00;;;;;;4430672;32;20212;-69
2022/06/10 01:25:20;;;;;;;1.98;0.60;;;21.20;62.10;;;;;;4430575;32;20089;-72
2022/06/10 01:28:27;;;;;;;1.63;0.63;;;21.20;62.10;;;;;;4431011;32;20220;-70
2022/06/10 01:31:24;;;;;;;1.65;0.57;;;21.20;62.00;;;;;;4380774;32;20496;-69
2022/06/10 01:34:02;;;;;;;2.03;0.70;;;21.20;62.10;;;;;;4431116;32;20090;-69
2022/06/10 01:37:03;;;;;;;2.13;0.60;;;21.20;62.10;;;;;;4431064;32;20106;-69
2022/06/10 01:40:02;;;;;;;2.17;0.68;;;21.20;62.00;;;;;;4429977;32;20511;-69
2022/06/10 01:42:36;;;;;;;2.50;0.85;;;21.20;62.10;;;;;;4430871;32;20184;-69
2022/06/10 01:45:23;;;;;;;1.50;0.60;;;21.10;62.00;;;;;;4430985;32;20216;-69
2022/06/10 01:48:04;;;;;;;1.20;0.57;;;21.10;62.00;;;;;;4431124;32;20066;-69
2022/06/10 01:50:40;;;;;;;1.65;0.60;;;21.10;62.00;;;;;;4430915;32;20551;-69
2022/06/10 01:53:22;;;;;;;1.63;0.60;;;21.10;62.00;;;;;;4431323;32;20062;-69
2022/06/10 01:56:01;;;;;;;0.80;0.40;;;21.10;62.00;;;;;;4430908;32;20259;-69
2022/06/10 01:58:38;;;;;;;2.17;0.73;;;21.10;62.00;;;;;;4430884;32;20094;-69
2022/06/10 02:01:11;;;;;;;2.95;0.73;;;21.10;62.00;;;;;;4430855;32;20164;-69
2022/06/10 02:03:41;;;;;;;1.92;0.60;;;21.10;62.00;;;;;;4430944;32;20144;-68
2022/06/10 02:06:23;;;;;;;1.00;0.60;;;21.10;62.00;;;;;;4430771;32;20098;-69
2022/06/10 02:09:01;;;;;;;1.42;0.50;;;21.10;62.00;;;;;;4430673;32;20090;-68
2022/06/10 02:11:28;;;;;;;2.33;0.70;;;21.10;62.10;;;;;;4430981;32;20074;-68
2022/06/10 02:14:19;;;;;;;1.52;0.52;;;21.10;62.10;;;;;;4430563;32;20165;-68
2022/06/10 02:16:49;;;;;;;1.42;0.45;;;21.10;62.00;;;;;;4430530;32;20067;-68
2022/06/10 02:19:26;;;;;;;1.23;0.45;;;21.10;62.10;;;;;;4430490;32;20496;-68
2022/06/10 02:22:10;;;;;;;1.55;0.65;;;21.10;62.10;;;;;;4430804;32;20228;-68
2022/06/10 02:25:08;;;;;;;1.30;0.52;;;21.10;62.10;;;;;;4430066;32;20070;-68
2022/06/10 02:27:40;;;;;;;1.52;0.60;;;21.10;62.10;;;;;;4406348;32;20085;-69
2022/06/10 02:30:15;;;;;;;2.22;0.60;;;21.10;62.20;;;;;;4430746;32;20085;-68
2022/06/10 02:32:42;;;;;;;1.10;0.40;;;21.00;62.10;;;;;;4430336;32;20082;-69
2022/06/10 02:35:10;;;;;;;1.30;0.50;;;21.00;62.10;;;;;;4430231;32;20118;-69
2022/06/10 02:37:51;;;;;;;1.60;0.60;;;21.00;62.10;;;;;;4430439;32;20074;-68
2022/06/10 02:40:26;;;;;;;0.98;0.47;;;21.00;62.10;;;;;;4430432;32;20213;-68
2022/06/10 02:43:20;;;;;;;1.13;0.50;;;21.00;62.10;;;;;;4430005;32;20066;-69
2022/06/10 02:45:57;;;;;;;1.70;0.55;;;21.00;62.00;;;;;;4430371;32;20145;-68
2022/06/10 02:48:31;;;;;;;1.63;0.40;;;21.00;62.10;;;;;;4430179;32;20224;-68
2022/06/10 02:50:57;;;;;;;2.50;0.77;;;21.00;62.10;;;;;;4430018;32;20137;-68
2022/06/10 02:53:23;;;;;;;1.10;0.50;;;21.00;62.10;;;;;;4430245;32;20488;-68
2022/06/10 02:55:49;;;;;;;1.50;0.55;;;21.00;62.10;;;;;;4430096;32;20084;-68
2022/06/10 03:01:25;;;;;;;1.90;0.63;;;20.90;62.00;;;;;;4430155;32;20085;-68
2022/06/10 03:04:02;;;;;;;2.00;0.70;;;21.00;62.10;;;;;;4430007;32;20148;-68
2022/06/10 03:06:31;;;;;;;2.10;0.63;;;20.90;62.00;;;;;;4430166;32;20713;-69
2022/06/10 03:09:21;;;;;;;0.90;0.55;;;20.90;62.00;;;;;;4429534;32;20097;-68
2022/06/10 03:12:09;;;;;;;0.77;0.35;;;20.90;62.00;;;;;;4429701;32;20078;-69
2022/06/10 03:14:34;;;;;;;2.50;0.70;;;20.90;62.00;;;;;;4429771;32;20090;-68
2022/06/10 03:17:19;;;;;;;1.75;0.50;;;20.90;62.10;;;;;;4429930;32;20153;-69
2022/06/10 03:20:13;;;;;;;1.27;0.50;;;20.90;62.10;;;;;;4416068;32;20062;-68
2022/06/10 03:23:03;;;;;;;1.42;0.68;;;20.90;62.00;;;;;;4429676;32;20142;-68
2022/06/10 03:25:41;;;;;;;2.10;0.80;;;20.90;62.10;;;;;;4429752;32;20088;-68
2022/06/10 03:28:18;;;;;;;1.60;0.60;;;20.90;62.10;;;;;;4415875;32;20280;-69
2022/06/10 03:30:59;;;;;;;1.50;0.70;;;20.90;62.10;;;;;;4429748;32;20088;-68
2022/06/10 03:33:30;;;;;;;1.08;0.57;;;20.90;62.10;;;;;;4430022;32;20623;-68
2022/06/10 03:36:05;;;;;;;1.15;0.60;;;20.90;62.20;;;;;;4429875;32;20503;-68
2022/06/10 03:38:32;;;;;;;1.35;0.55;;;20.90;62.10;;;;;;4430135;32;20220;-68
2022/06/10 03:41:02;;;;;;;0.50;0.20;;;20.90;62.20;;;;;;4429544;32;20120;-71
2022/06/10 03:43:33;;;;;;;1.63;0.50;;;20.90;62.20;;;;;;4429548;32;20137;-68
2022/06/10 03:46:03;;;;;;;1.02;0.30;;;20.90;62.20;;;;;;4416027;32;20082;-69
2022/06/10 03:48:33;;;;;;;1.17;0.40;;;20.80;62.10;;;;;;4429558;32;20093;-68
2022/06/10 03:50:59;;;;;;;1.65;0.50;;;20.80;62.10;;;;;;4429680;32;20078;-69
2022/06/10 03:53:26;;;;;;;1.77;0.57;;;20.80;62.10;;;;;;4429788;32;20079;-68
2022/06/10 03:55:52;;;;;;;1.48;0.68;;;20.80;62.10;;;;;;4429921;32;20168;-77
2022/06/10 03:58:19;;;;;;;1.17;0.68;;;20.80;62.10;;;;;;4429641;32;20125;-69
2022/06/10 04:00:45;;;;;;;1.23;0.50;;;20.80;62.10;;;;;;4415694;32;20212;-68
2022/06/10 04:03:11;;;;;;;0.63;0.30;;;20.80;62.20;;;;;;4430934;32;20280;-68
2022/06/10 04:05:37;;;;;;;1.98;0.70;;;20.80;62.10;;;;;;4432569;32;20078;-68
2022/06/10 04:08:04;;;;;;;1.48;0.50;;;20.80;62.10;;;;;;4432460;32;20081;-68
2022/06/10 04:10:30;;;;;;;0.68;0.45;;;20.80;62.20;;;;;;4432410;32;20531;-69
2022/06/10 04:12:57;;;;;;;0.95;0.40;;;20.80;62.20;;;;;;4418994;32;20075;-68
2022/06/10 04:15:27;;;;;;;1.45;0.40;;;20.80;62.20;;;;;;4418564;32;20098;-69
2022/06/10 04:17:55;;;;;;;1.73;0.80;;;20.80;62.10;;;;;;4432382;32;20062;-68
2022/06/10 04:20:28;;;;;;;1.13;0.40;;;20.80;62.10;;;;;;4432534;32;20093;-68
2022/06/10 04:22:54;;;;;;;1.63;0.60;;;20.80;62.20;;;;;;4418712;32;20416;-68
2022/06/10 04:25:20;;;;;;;1.27;0.50;;;20.80;62.20;;;;;;4432202;32;20079;-68
2022/06/10 04:27:47;;;;;;;0.57;0.30;;;20.80;62.20;;;;;;4432121;32;20082;-68
2022/06/10 04:30:27;;;;;;;2.03;0.50;;;20.80;62.20;;;;;;4432378;32;20085;-68
2022/06/10 04:32:54;;;;;;;1.25;0.60;;;20.80;62.20;;;;;;4418349;32;20172;-68
2022/06/10 04:35:20;;;;;;;0.85;0.40;;;20.80;62.20;;;;;;4432126;32;20082;-68
2022/06/10 04:37:48;;;;;;;1.40;0.40;;;20.80;62.10;;;;;;4431933;32;20094;-67
2022/06/10 04:40:19;;;;;;;2.25;0.73;;;20.80;62.20;;;;;;4418300;32;20082;-68
2022/06/10 04:42:46;;;;;;;0.40;0.20;;;20.70;62.10;;;;;;4432321;32;20082;-68
2022/06/10 04:45:13;;;;;;;0.68;0.40;;;20.70;63.00;;;;;;4432296;32;20074;-68
2022/06/10 04:47:39;;;;;;;0.82;0.40;;;20.70;62.20;;;;;;4431830;32;20098;-68
2022/06/10 04:50:06;;;;;;;1.20;0.50;;;20.80;62.20;;;;;;4431647;32;20070;-68
2022/06/10 04:52:34;;;;;;;1.45;0.40;;;20.70;62.20;;;;;;4431529;32;20078;-68
2022/06/10 04:55:00;;;;;;;0.80;0.40;;;20.70;62.20;;;;;;4431561;32;20070;-69
2022/06/10 04:57:26;;;;;;;1.05;0.40;;;20.70;62.10;;;;;;4431631;32;20374;-69
2022/06/10 04:59:52;;;;;;;1.30;0.40;;;20.70;62.20;;;;;;4431659;32;20078;-68
2022/06/10 05:02:18;;;;;;;1.17;0.32;;;20.70;62.20;;;;;;4431718;32;20618;-68
2022/06/10 05:04:44;;;;;;;1.25;0.40;;;20.70;62.20;;;;;;4431617;32;20196;-68
2022/06/10 05:07:10;;;;;;;0.63;0.28;;;20.70;62.10;;;;;;4431894;32;20066;-68
2022/06/10 05:09:35;;;;;;;2.10;0.70;;;20.70;62.10;;;;;;4431707;32;20063;-67
2022/06/10 05:12:01;;;;;;;0.77;0.30;;;20.70;62.20;;;;;;4431690;32;20126;-69
2022/06/10 05:14:27;;;;;;;1.10;0.40;;;20.70;62.20;;;;;;4431374;32;20071;-68
2022/06/10 05:16:53;;;;;;;0.98;0.38;;;20.70;62.20;;;;;;4431486;32;20121;-68
2022/06/10 05:19:19;;;;;;;1.00;0.40;;;20.70;62.20;;;;;;4431100;32;20181;-68
2022/06/10 05:21:44;;;;;;;1.15;0.50;;;20.70;62.10;;;;;;4431708;32;20196;-68
2022/06/10 05:24:10;;;;;;;1.30;0.40;;;20.70;62.20;;;;;;4431091;32;20105;-68
2022/06/10 05:26:36;;;;;;;0.80;0.40;;;20.70;62.10;;;;;;4431376;32;20059;-68
2022/06/10 05:29:03;;;;;;;0.73;0.25;;;20.70;62.20;;;;;;4431291;32;20448;-68
2022/06/10 05:31:29;;;;;;;1.17;0.43;;;20.70;62.20;;;;;;4431027;32;20097;-68
2022/06/10 05:36:39;;;;;;;0.90;0.40;;;20.70;62.20;;;;;;4431271;32;20521;-68
2022/06/10 05:39:06;;;;;;;1.23;0.40;;;20.70;62.30;;;;;;4431106;32;20070;-68
2022/06/10 05:44:17;;;;;;;2.10;0.50;;;20.70;62.20;;;;;;4431674;32;20070;-68
2022/06/10 05:46:43;;;;;;;1.55;0.50;;;20.70;62.30;;;;;;4431291;32;20173;-68
2022/06/10 05:49:09;;;;;;;1.38;0.40;;;20.60;62.20;;;;;;4430949;32;20126;-69
2022/06/10 05:51:35;;;;;;;0.77;0.30;;;20.60;62.20;;;;;;4430665;32;20089;-68
2022/06/10 05:54:01;;;;;;;1.08;0.43;;;20.70;62.30;;;;;;4417243;32;20079;-69
2022/06/10 05:56:28;;;;;;;1.10;0.47;;;20.60;62.20;;;;;;4431022;32;20428;-68
2022/06/10 05:58:53;;;;;;;1.63;0.50;;;20.60;62.30;;;;;;4430883;32;20284;-68
2022/06/10 06:01:19;;;;;;;1.33;0.70;;;20.60;62.30;;;;;;4430572;32;20105;-68
2022/06/10 06:03:45;;;;;;;0.95;0.35;;;20.60;62.30;;;;;;4417316;32;20118;-68
2022/06/10 06:06:12;;;;;;;0.93;0.32;;;20.60;62.30;;;;;;4430827;32;20078;-68
2022/06/10 06:08:38;;;;;;;0.80;0.40;;;20.60;62.30;;;;;;4430701;32;20172;-68
2022/06/10 06:11:04;;;;;;;1.80;0.50;;;20.60;62.40;;;;;;4430315;32;20113;-68
2022/06/10 06:13:30;;;;;;;1.35;0.55;;;20.60;62.40;;;;;;4430678;32;20082;-68
2022/06/10 06:15:56;;;;;;;1.38;0.30;;;20.60;62.40;;;;;;4430777;32;20085;-68
2022/06/10 06:18:22;;;;;;;0.70;0.40;;;20.60;62.40;;;;;;4430492;32;20063;-68
2022/06/10 06:20:48;;;;;;;1.23;0.50;;;20.60;62.40;;;;;;4430323;32;20192;-68
2022/06/10 06:23:14;;;;;;;1.05;0.40;;;20.60;62.40;;;;;;4430259;32;20396;-68
2022/06/10 06:25:40;;;;;;;1.23;0.40;;;20.60;62.50;;;;;;4430336;32;20216;-68
2022/06/10 06:28:05;;;;;;;1.17;0.68;;;20.60;62.50;;;;;;4430304;32;20467;-68
2022/06/10 06:30:36;;;;;;;1.63;0.40;;;20.60;62.50;;;;;;4430605;32;20528;-68
2022/06/10 06:33:08;;;;;;;0.40;0.32;;;20.60;62.50;;;;;;4430329;32;20090;-68
2022/06/10 06:35:35;;;;;;;0.98;0.30;;;20.60;62.50;;;;;;4430290;32;20074;-68
2022/06/10 06:38:02;;;;;;;1.13;0.45;;;20.60;62.60;;;;;;4430110;32;20606;-69
2022/06/10 06:40:29;;;;;;;1.20;0.50;;;20.60;62.60;;;;;;4430088;32;20086;-68
2022/06/10 06:42:55;;;;;;;0.90;0.32;;;20.60;62.60;;;;;;4430190;32;20082;-69
2022/06/10 06:45:22;;;;;;;1.70;0.52;;;20.60;62.60;;;;;;4430161;32;20082;-68
2022/06/10 06:47:51;;;;;;;0.95;0.45;;;20.60;62.60;;;;;;4430094;32;20125;-68
2022/06/10 06:50:23;;;;;;;1.45;0.40;;;20.60;62.60;;;;;;4416373;32;20074;-68
2022/06/10 06:52:49;;;;;;;0.85;0.40;;;20.60;62.70;;;;;;4430332;32;20130;-68
2022/06/10 06:55:15;;;;;;;1.95;0.50;;;20.60;62.60;;;;;;4430126;32;20062;-68
2022/06/10 06:57:41;;;;;;;1.83;0.50;;;20.60;62.70;;;;;;4430078;32;20551;-68
2022/06/10 07:00:08;;;;;;;1.00;0.25;;;20.60;62.70;;;;;;4429889;32;20074;-68
2022/06/10 07:02:36;;;;;;;1.95;0.50;;;20.60;62.70;;;;;;4429684;32;20083;-69
2022/06/10 07:05:04;;;;;;;1.63;0.52;;;20.60;62.80;;;;;;4429901;32;20097;-70
2022/06/10 07:07:30;;;;;;;3.22;0.52;;;20.60;62.80;;;;;;4430065;32;20082;-70
2022/06/10 07:09:56;;;;;;;2.72;0.80;;;20.60;62.90;;;;;;4430131;32;20075;-75
2022/06/10 07:12:22;;;;;;;2.25;0.95;;;20.60;62.90;;;;;;4415966;32;20411;-71
2022/06/10 07:14:48;;;;;;;2.58;0.98;;;20.60;62.90;;;;;;4429674;32;20129;-71
2022/06/10 07:17:18;;;;;;;5.50;1.23;;;20.60;63.00;;;;;;4429351;32;20507;-70
2022/06/10 07:19:48;;;;;;;4.55;1.60;;;20.60;63.10;;;;;;4429662;32;20180;-70
2022/06/10 07:22:15;;;;;;;6.30;1.38;;;20.60;63.30;;;;;;4429788;32;20089;-70
2022/06/10 07:24:42;;;;;;;3.90;1.50;;;20.60;63.40;;;;;;4429562;32;20105;-70
2022/06/10 07:27:08;;;;;;;5.28;1.52;;;20.60;63.40;;;;;;4429545;32;20082;-70
2022/06/10 07:29:35;;;;;;;4.85;1.10;;;20.60;63.40;;;;;;4416049;32;20220;-71
2022/06/10 07:32:02;;;;;;;6.30;1.77;;;20.60;63.50;;;;;;4429638;32;20082;-75
2022/06/10 07:34:27;;;;;;;6.47;1.67;;;20.60;63.50;;;;;;4429368;32;20386;-71
2022/06/10 07:36:55;;;;;;;6.63;1.80;;;20.60;63.60;;;;;;4429854;32;20460;-70
2022/06/10 07:39:21;;;;;;;7.13;1.52;;;20.60;63.70;;;;;;4432236;32;20094;-70
2022/06/10 07:42:02;;;;;;;13.02;1.80;;;20.60;63.70;;;;;;4432498;32;20066;-70
2022/06/10 07:44:38;;;;;;;7.05;1.80;;;20.60;63.70;;;;;;4432484;32;20090;-71
2022/06/10 07:47:08;;;;;;;6.20;1.73;;;20.60;63.90;;;;;;4418777;32;20074;-70
2022/06/10 07:49:34;;;;;;;6.40;1.55;;;20.60;63.90;;;;;;4418990;32;20094;-71
2022/06/10 07:52:00;;;;;;;7.40;2.03;;;20.60;63.90;;;;;;4432855;32;20078;-71
2022/06/10 07:54:26;;;;;;;7.28;2.03;;;20.60;63.90;;;;;;4432593;32;20129;-75
2022/06/10 07:56:53;;;;;;;9.80;1.90;;;20.60;64.00;;;;;;4431463;32;20642;-75
2022/06/10 07:59:19;;;;;;;10.13;2.13;;;20.60;64.00;;;;;;4432400;32;20208;-71
2022/06/10 08:01:45;;;;;;;7.13;1.67;;;20.60;64.00;;;;;;4432650;32;20089;-71
2022/06/10 08:04:11;;;;;;;7.22;2.13;;;20.60;64.10;;;;;;4432369;32;20489;-71
2022/06/10 08:06:41;;;;;;;6.82;1.95;;;20.60;64.20;;;;;;4432359;32;20079;-71
2022/06/10 08:09:09;;;;;;;8.32;1.85;;;20.60;64.10;;;;;;4432511;32;20081;-71
2022/06/10 08:11:36;;;;;;;9.68;1.98;;;20.60;64.10;;;;;;4431983;32;20491;-71
2022/06/10 08:14:04;;;;;;;6.80;1.83;;;20.60;64.20;;;;;;4432554;32;20172;-71
2022/06/10 08:16:31;;;;;;;9.32;2.13;;;20.60;64.20;;;;;;4432137;32;20079;-73
2022/06/10 08:18:56;;;;;;;5.68;1.83;;;20.60;64.20;;;;;;4432138;32;20071;-71
2022/06/10 08:24:07;;;;;;;6.65;1.77;;;20.60;64.20;;;;;;4432104;32;20109;-71
2022/06/10 08:26:34;;;;;;;5.55;1.77;;;20.60;64.20;;;;;;4432348;32;20519;-71
2022/06/10 08:29:03;;;;;;;7.68;1.90;;;20.60;64.20;;;;;;4432076;32;20105;-71
2022/06/10 08:31:30;;;;;;;6.43;2.03;;;20.60;64.30;;;;;;4431785;32;20603;-71
2022/06/10 08:33:57;;;;;;;3.75;1.40;;;20.60;64.30;;;;;;4432011;32;20074;-71
2022/06/10 08:36:23;;;;;;;9.40;1.85;;;20.60;64.30;;;;;;4431697;32;20195;-70
2022/06/10 08:38:49;;;;;;;4.43;1.73;;;20.60;64.40;;;;;;4431783;32;20134;-71
2022/06/10 08:41:51;;;;;;;9.07;2.08;;;20.60;64.50;;;;;;4431482;32;20090;-70
2022/06/10 08:44:43;;;;;;;4.55;1.60;;;20.60;64.50;;;;;;4431628;32;20220;-70
2022/06/10 08:47:46;;;;;;;7.35;1.90;;;20.60;64.60;;;;;;4431838;32;20576;-70
2022/06/10 08:50:23;;;;;;;4.97;1.48;;;20.60;64.60;;;;;;4431152;32;20070;-70
2022/06/10 08:53:19;;;;;;;7.25;1.88;;;20.60;64.60;;;;;;4431753;32;20259;-70
2022/06/10 08:55:51;;;;;;;5.68;2.20;;;20.60;64.80;;;;;;4431747;32;20071;-71
2022/06/10 08:58:44;;;;;;;3.80;1.73;;;20.70;64.80;;;;;;4431209;32;20237;-71
2022/06/10 09:01:17;;;;;;;6.00;2.10;;;20.70;65.00;;;;;;4424901;32;20220;-72
2022/06/10 09:04:18;;;;;;;4.97;2.13;;;20.70;65.00;;;;;;4431754;32;20500;-71
2022/06/10 09:06:51;;;;;;;6.60;2.10;;;20.70;65.40;;;;;;4431514;32;20403;-72
2022/06/10 09:09:19;;;;;;;4.95;1.67;;;20.70;65.20;;;;;;4431435;32;20515;-73
2022/06/10 09:11:57;;;;;;;4.78;1.70;;;20.70;65.20;;;;;;4431084;32;20078;-70
2022/06/10 09:14:26;;;;;;;7.68;1.92;;;20.70;65.20;;;;;;4431029;32;20098;-70
2022/06/10 09:17:17;;;;;;;5.40;2.08;;;20.70;65.40;;;;;;4431200;32;20088;-77
2022/06/10 09:20:02;;;;;;;5.55;1.88;;;20.80;65.60;;;;;;4431493;32;20071;-72
2022/06/10 09:22:35;;;;;;;6.57;1.83;;;20.70;65.50;;;;;;4431136;32;20070;-72
2022/06/10 09:25:19;;;;;;;7.32;2.00;;;20.80;65.70;;;;;;4431615;32;20140;-71
2022/06/10 09:27:50;;;;;;;4.78;2.15;;;20.70;65.60;;;;;;4431361;32;20074;-72
2022/06/10 09:30:19;;;;;;;6.00;1.98;;;20.80;65.70;;;;;;4431285;32;20087;-72
2022/06/10 09:32:58;;;;;;;4.10;1.70;;;20.80;65.70;;;;;;4430882;32;20108;-72
2022/06/10 09:35:39;;;;;;;5.25;2.00;;;20.80;65.70;;;;;;4431135;32;20092;-72
2022/06/10 09:38:11;;;;;;;7.60;2.08;;;20.80;65.60;;;;;;4431000;32;20075;-71
2022/06/10 09:40:59;;;;;;;9.30;2.42;;;20.80;65.70;;;;;;4430979;32;20133;-71
2022/06/10 09:43:44;;;;;;;5.93;2.10;;;20.80;65.70;;;;;;4431102;32;20078;-71
2022/06/10 09:46:17;;;;;;;6.93;2.45;;;20.80;65.70;;;;;;4430730;32;20071;-70
2022/06/10 09:48:53;;;;;;;4.20;2.20;;;20.80;65.70;;;;;;4430639;32;20083;-73
2022/06/10 09:51:48;;;;;;;5.80;2.17;;;20.80;65.70;;;;;;4430813;32;20105;-74
2022/06/10 09:54:25;;;;;;;5.22;2.30;;;20.80;65.70;;;;;;4431127;32;20074;-72
2022/06/10 09:57:03;;;;;;;6.53;2.58;;;20.80;65.70;;;;;;4430673;32;20081;-72
2022/06/10 09:59:35;;;;;;;7.45;2.45;;;20.80;65.70;;;;;;4430743;32;20327;-77
2022/06/10 10:02:22;;;;;;;4.67;2.30;;;20.80;65.70;;;;;;4430294;32;20204;-72
2022/06/10 10:05:08;;;;;;;5.60;2.45;;;20.80;65.70;;;;;;4430685;32;20093;-74
2022/06/10 10:07:40;;;;;;;6.93;2.45;;;20.80;65.70;;;;;;4430731;32;20074;-73
2022/06/10 10:10:18;;;;;;;8.32;2.70;;;20.80;65.70;;;;;;4430635;32;20063;-72
2022/06/10 10:13:02;;;;;;;7.68;2.55;;;20.80;65.70;;;;;;4430515;32;20570;-73
2022/06/10 10:16:06;;;;;;;9.23;2.40;;;20.80;65.70;;;;;;4430418;32;20082;-72
2022/06/10 10:18:37;;;;;;;6.85;2.08;;;20.80;65.70;;;;;;4430197;32;20228;-72
2022/06/10 10:21:20;;;;;;;9.85;3.03;;;20.80;65.70;;;;;;4430336;32;20078;-71
2022/06/10 10:23:50;;;;;;;6.32;2.30;;;20.80;65.70;;;;;;4429404;32;20089;-71
2022/06/10 10:26:29;;;;;;;8.00;2.85;;;20.80;65.70;;;;;;4430547;32;20144;-70
2022/06/10 10:29:07;;;;;;;8.65;2.58;;;20.80;65.80;;;;;;4430259;32;20089;-70
2022/06/10 10:31:42;;;;;;;7.85;2.20;;;20.80;65.80;;;;;;4430640;32;20082;-71
2022/06/10 10:34:18;;;;;;;7.18;2.72;;;20.80;65.90;;;;;;4430023;32;20092;-72
2022/06/10 10:36:56;;;;;;;6.43;2.47;;;20.80;66.00;;;;;;4430565;32;20098;-71
2022/06/10 10:39:28;;;;;;;6.68;2.40;;;20.80;65.90;;;;;;4430277;32;20075;-71
2022/06/10 10:41:58;;;;;;;6.82;2.60;;;20.80;65.90;;;;;;4429881;32;20066;-71
2022/06/10 10:44:56;;;;;;;6.80;2.78;;;20.80;66.00;;;;;;4429754;32;20100;-71
2022/06/10 10:47:25;;;;;;;6.70;2.55;;;20.80;65.90;;;;;;4416587;32;20097;-72
2022/06/10 10:50:03;;;;;;;7.70;2.65;;;20.80;66.00;;;;;;4429986;32;20084;-71
2022/06/10 10:52:32;;;;;;;8.75;2.75;;;20.80;65.90;;;;;;4429991;32;20129;-75
2022/06/10 10:55:14;;;;;;;7.43;2.42;;;20.80;66.00;;;;;;4429970;32;20078;-71
2022/06/10 10:57:51;;;;;;;10.82;2.78;;;20.80;65.90;;;;;;4429970;32;20070;-71
2022/06/10 11:00:17;;;;;;;9.05;3.15;;;20.80;65.90;;;;;;4430196;32;20078;-71
2022/06/10 11:02:50;;;;;;;8.38;3.00;;;20.80;65.80;;;;;;4430082;32;20491;-72
2022/06/10 11:05:25;;;;;;;12.20;3.03;;;20.80;66.60;;;;;;4429983;32;20082;-71
2022/06/10 11:08:25;;;;;;;10.52;3.63;;;20.90;65.80;;;;;;4429899;32;20220;-72
2022/06/10 11:10:53;;;;;;;8.18;3.05;;;20.90;66.00;;;;;;4418472;32;20087;-72
2022/06/10 11:13:40;;;;;;;6.50;2.50;;;20.90;65.90;;;;;;4429588;32;20082;-70
2022/06/10 11:16:26;;;;;;;6.60;3.17;;;20.90;65.90;;;;;;4429850;32;20208;-71
2022/06/10 11:19:17;;;;;;;7.53;3.03;;;20.90;65.90;;;;;;4429921;32;20488;-72
2022/06/10 11:21:47;;;;;;;9.18;2.90;;;20.90;65.90;;;;;;4400547;32;20074;-71
2022/06/10 11:24:16;;;;;;;9.98;3.25;;;21.00;66.00;;;;;;4429438;32;20586;-70
2022/06/10 11:26:55;;;;;;;8.77;3.03;;;21.00;66.10;;;;;;4429386;32;20113;-72
2022/06/10 11:29:22;;;;;;;9.68;3.28;;;21.00;66.20;;;;;;4415430;32;20515;-71
2022/06/10 11:31:56;;;;;;;9.93;3.63;;;20.90;66.10;;;;;;4429805;32;20200;-71
2022/06/10 11:34:40;;;;;;;7.97;3.50;;;21.00;66.10;;;;;;4415774;32;20232;-71
2022/06/10 11:37:39;;;;;;;8.20;3.20;;;21.00;66.20;;;;;;4429912;32;20212;-72
2022/06/10 11:40:10;;;;;;;8.02;3.50;;;21.00;66.20;;;;;;4417055;32;20212;-71
2022/06/10 11:42:50;;;;;;;11.55;3.45;;;21.00;66.10;;;;;;4429654;32;20157;-71
2022/06/10 11:45:21;;;;;;;8.07;2.97;;;21.00;66.10;;;;;;4429664;32;20210;-72
2022/06/10 11:48:02;;;;;;;8.82;3.13;;;21.00;66.30;;;;;;4429468;32;20412;-71
2022/06/10 11:50:38;;;;;;;7.90;3.15;;;21.00;66.30;;;;;;4429547;32;20096;-71
2022/06/10 11:53:22;;;;;;;11.75;3.22;;;21.00;66.30;;;;;;4429580;32;20062;-71
2022/06/10 11:55:50;;;;;;;;;;;21.00;66.30;;;;;;4416477;32;20078;-71
2022/06/10 12:01:19;;;;;;;8.52;2.72;;;20.90;66.30;;;;;;4429423;32;20059;-71
2022/06/10 12:03:48;;;;;;;;;;;21.00;66.40;;;;;;4416998;32;20399;-71
2022/06/10 12:06:33;;;;;;;9.02;3.05;;;20.90;66.40;;;;;;4429370;32;20010;-71
2022/06/10 12:09:15;;;;;;;6.63;2.95;;;21.00;66.50;;;;;;4429456;32;20075;-73
2022/06/10 12:11:46;;;;;;;6.40;2.40;;;20.90;66.40;;;;;;4429955;32;20133;-71
2022/06/10 12:14:13;;;;;;;6.53;2.75;;;20.90;66.30;;;;;;4429100;32;20070;-71
2022/06/10 12:16:40;;;;;;;6.93;2.75;;;20.90;66.40;;;;;;4429276;32;20173;-71
2022/06/10 12:19:17;;;;;;;6.25;2.80;;;20.90;66.40;;;;;;4429519;32;20152;-71
2022/06/10 12:21:43;;;;;;;5.13;2.75;;;20.90;66.40;;;;;;4429217;32;20500;-72
2022/06/10 12:24:16;;;;;;;7.28;2.75;;;20.90;66.50;;;;;;4416086;32;20088;-72
2022/06/10 12:26:51;;;;;;;8.02;2.88;;;20.90;66.50;;;;;;4418455;32;20121;-72
2022/06/10 12:29:27;;;;;;;6.40;2.58;;;20.90;66.60;;;;;;4432287;32;20096;-72
2022/06/10 12:32:18;;;;;;;8.07;2.83;;;20.90;66.60;;;;;;4432019;32;20093;-71
2022/06/10 12:35:01;;;;;;;6.72;3.03;;;21.00;67.00;;;;;;4432327;32;20178;-71
2022/06/10 12:37:32;;;;;;;7.20;2.80;;;21.00;67.70;;;;;;4418208;32;20443;-71
2022/06/10 12:40:12;;;;;;;6.15;2.45;;;21.00;67.30;;;;;;4418301;32;20164;-71
2022/06/10 12:42:41;;;;;;;7.53;2.90;;;21.00;67.50;;;;;;4432234;32;20152;-74
2022/06/10 12:45:21;;;;;;;9.32;2.70;;;21.00;67.30;;;;;;4431761;32;20136;-71
2022/06/10 12:47:53;;;;;;;6.05;2.60;;;21.10;67.90;;;;;;4432214;32;20074;-71
2022/06/10 12:50:36;;;;;;;5.90;2.22;;;21.10;67.60;;;;;;4432117;32;20085;-71
2022/06/10 12:53:17;;;;;;;;;;;21.10;68.10;;;;;;4432993;32;20081;-71
2022/06/10 12:55:48;;;;;;;5.97;2.33;;;21.20;68.80;;;;;;4432254;32;19991;-71
2022/06/10 12:58:39;;;;;;;5.40;1.95;;;21.20;68.10;;;;;;4431757;32;20176;-71
2022/06/10 13:01:44;;;;;;;6.45;2.40;;;21.20;68.60;;;;;;4431536;32;20232;-71
2022/06/10 13:04:14;;;;;;;6.82;2.13;;;21.30;68.60;;;;;;4431696;32;20591;-71
2022/06/10 13:06:43;;;;;;;7.90;2.38;;;21.20;68.10;;;;;;4431516;32;20567;-70
2022/06/10 13:09:12;;;;;;;4.95;2.55;;;21.30;68.20;;;;;;4431468;32;20178;-70
2022/06/10 13:11:47;;;;;;;7.18;2.47;;;21.30;68.20;;;;;;4431365;32;20082;-70
2022/06/10 13:14:43;;;;;;;6.78;2.20;;;21.30;68.20;;;;;;4417634;32;20079;-71
2022/06/10 13:17:26;;;;;;;5.55;2.38;;;21.30;68.20;;;;;;4431201;32;20094;-70
2022/06/10 13:19:54;;;;;;;5.88;2.20;;;21.30;68.10;;;;;;4431648;32;20495;-70
2022/06/10 13:22:20;;;;;;;5.60;2.33;;;21.30;68.00;;;;;;4431102;32;20110;-69
2022/06/10 13:24:52;;;;;;;7.82;2.47;;;21.30;68.00;;;;;;4431184;32;20160;-70
2022/06/10 13:27:25;;;;;;;6.30;2.30;;;21.30;68.10;;;;;;4429733;32;20228;-71
2022/06/10 13:29:54;;;;;;;5.70;2.22;;;21.30;68.00;;;;;;4431226;32;20164;-70
2022/06/10 13:32:20;;;;;;;5.22;2.20;;;21.30;68.00;;;;;;4431141;32;20149;-69
2022/06/10 13:34:58;;;;;;;6.90;2.15;;;21.30;68.00;;;;;;4431200;32;20283;-69